sensor_id;sensor_type;location;lat;lon;timestamp;P1;durP1;ratioP1;P2;durP2;ratioP2
30287;SDS011;17103;48.316;11.558;2024-03-02T00:01:14;7.80;;;5.20;;
30287;SDS011;17103;48.316;11.558;2024-03-02T00:03:40;9.50;;;6.32;;
30287;SDS011;17103;48.316;11.558;2024-03-02T00:06:08;11.27;;;6.40;;
30287;SDS011;17103;48.316;11.558;2024-03-02T00:08:34;8.65;;;6.05;;
30287;SDS011;17103;48.316;11.558;2024-03-02T00:11:00;8.95;;;5.95;;
30287;SDS011;17103;48.316;11.558;2024-03-02T00:13:29;10.13;;;5.57;;
30287;SDS011;17103;48.316;11.558;2024-03-02T00:16:07;10.70;;;6.07;;
30287;SDS011;17103;48.316;11.558;2024-03-02T00:18:43;14.50;;;5.85;;
30287;SDS011;17103;48.316;11.558;2024-03-02T00:21:12;10.30;;;5.32;;
30287;SDS011;17103;48.316;11.558;2024-03-02T00:23:39;9.63;;;4.90;;
30287;SDS011;17103;48.316;11.558;2024-03-02T00:26:05;18.20;;;6.18;;
30287;SDS011;17103;48.316;11.558;2024-03-02T00:28:38;21.67;;;7.28;;
30287;SDS011;17103;48.316;11.558;2024-03-02T00:31:24;24.95;;;7.45;;
30287;SDS011;17103;48.316;11.558;2024-03-02T00:33:50;20.27;;;7.28;;
30287;SDS011;17103;48.316;11.558;2024-03-02T00:36:26;17.73;;;6.95;;
30287;SDS011;17103;48.316;11.558;2024-03-02T00:41:34;11.73;;;5.25;;
30287;SDS011;17103;48.316;11.558;2024-03-02T00:44:07;14.70;;;6.25;;
30287;SDS011;17103;48.316;11.558;2024-03-02T00:46:40;9.43;;;5.30;;
30287;SDS011;17103;48.316;11.558;2024-03-02T00:51:44;7.18;;;4.30;;
30287;SDS011;17103;48.316;11.558;2024-03-02T00:54:19;8.43;;;4.78;;
30287;SDS011;17103;48.316;11.558;2024-03-02T00:59:25;7.75;;;4.75;;
30287;SDS011;17103;48.316;11.558;2024-03-02T01:01:55;5.85;;;4.25;;
30287;SDS011;17103;48.316;11.558;2024-03-02T01:04:22;7.95;;;5.18;;
30287;SDS011;17103;48.316;11.558;2024-03-02T01:06:48;7.18;;;4.82;;
30287;SDS011;17103;48.316;11.558;2024-03-02T01:09:23;5.95;;;4.18;;
30287;SDS011;17103;48.316;11.558;2024-03-02T01:14:41;6.40;;;5.53;;
30287;SDS011;17103;48.316;11.558;2024-03-02T01:17:10;5.60;;;4.75;;
30287;SDS011;17103;48.316;11.558;2024-03-02T01:19:50;7.20;;;5.45;;
30287;SDS011;17103;48.316;11.558;2024-03-02T01:24:53;6.65;;;4.97;;
30287;SDS011;17103;48.316;11.558;2024-03-02T01:27:19;7.15;;;5.55;;
30287;SDS011;17103;48.316;11.558;2024-03-02T01:29:47;7.60;;;5.95;;
30287;SDS011;17103;48.316;11.558;2024-03-02T01:32:16;6.80;;;5.40;;
30287;SDS011;17103;48.316;11.558;2024-03-02T01:35:16;6.25;;;5.60;;
30287;SDS011;17103;48.316;11.558;2024-03-02T01:37:53;5.45;;;4.95;;
30287;SDS011;17103;48.316;11.558;2024-03-02T01:40:39;6.60;;;5.63;;
30287;SDS011;17103;48.316;11.558;2024-03-02T01:43:16;7.35;;;5.80;;
30287;SDS011;17103;48.316;11.558;2024-03-02T01:45:53;7.22;;;5.35;;
30287;SDS011;17103;48.316;11.558;2024-03-02T01:48:21;7.72;;;5.72;;
30287;SDS011;17103;48.316;11.558;2024-03-02T01:50:57;5.55;;;4.53;;
30287;SDS011;17103;48.316;11.558;2024-03-02T01:53:35;5.82;;;5.20;;
30287;SDS011;17103;48.316;11.558;2024-03-02T01:56:02;6.88;;;5.25;;
30287;SDS011;17103;48.316;11.558;2024-03-02T01:58:30;8.05;;;5.50;;
30287;SDS011;17103;48.316;11.558;2024-03-02T02:00:56;5.75;;;4.97;;
30287;SDS011;17103;48.316;11.558;2024-03-02T02:03:22;7.50;;;5.68;;
30287;SDS011;17103;48.316;11.558;2024-03-02T02:05:47;7.10;;;5.13;;
30287;SDS011;17103;48.316;11.558;2024-03-02T02:08:13;6.57;;;5.03;;
30287;SDS011;17103;48.316;11.558;2024-03-02T02:10:41;6.97;;;5.53;;
30287;SDS011;17103;48.316;11.558;2024-03-02T02:13:07;6.63;;;4.90;;
30287;SDS011;17103;48.316;11.558;2024-03-02T02:15:33;6.80;;;4.90;;
30287;SDS011;17103;48.316;11.558;2024-03-02T02:18:01;6.13;;;5.03;;
30287;SDS011;17103;48.316;11.558;2024-03-02T02:20:28;5.78;;;5.03;;
30287;SDS011;17103;48.316;11.558;2024-03-02T02:25:46;11.25;;;5.25;;
30287;SDS011;17103;48.316;11.558;2024-03-02T02:34:10;5.60;;;4.35;;
30287;SDS011;17103;48.316;11.558;2024-03-02T02:36:37;7.13;;;5.10;;
30287;SDS011;17103;48.316;11.558;2024-03-02T02:39:06;5.95;;;4.75;;
30287;SDS011;17103;48.316;11.558;2024-03-02T02:41:36;8.80;;;5.35;;
30287;SDS011;17103;48.316;11.558;2024-03-02T02:44:01;5.75;;;4.28;;
30287;SDS011;17103;48.316;11.558;2024-03-02T02:46:28;6.90;;;5.03;;
30287;SDS011;17103;48.316;11.558;2024-03-02T02:48:53;7.53;;;5.18;;
30287;SDS011;17103;48.316;11.558;2024-03-02T02:51:19;6.50;;;5.10;;
30287;SDS011;17103;48.316;11.558;2024-03-02T02:53:45;6.05;;;4.38;;
30287;SDS011;17103;48.316;11.558;2024-03-02T02:56:11;6.90;;;4.60;;
30287;SDS011;17103;48.316;11.558;2024-03-02T02:58:37;6.05;;;5.30;;
30287;SDS011;17103;48.316;11.558;2024-03-02T03:01:03;6.85;;;5.00;;
30287;SDS011;17103;48.316;11.558;2024-03-02T03:03:30;5.28;;;4.50;;
30287;SDS011;17103;48.316;11.558;2024-03-02T03:05:55;4.97;;;4.45;;
30287;SDS011;17103;48.316;11.558;2024-03-02T03:08:21;6.90;;;4.70;;
30287;SDS011;17103;48.316;11.558;2024-03-02T03:10:48;8.13;;;5.22;;
30287;SDS011;17103;48.316;11.558;2024-03-02T03:13:15;7.70;;;4.25;;
30287;SDS011;17103;48.316;11.558;2024-03-02T03:15:41;6.25;;;4.68;;
30287;SDS011;17103;48.316;11.558;2024-03-02T03:18:06;7.55;;;4.97;;
30287;SDS011;17103;48.316;11.558;2024-03-02T03:20:32;4.85;;;3.90;;
30287;SDS011;17103;48.316;11.558;2024-03-02T03:23:01;8.13;;;4.53;;
30287;SDS011;17103;48.316;11.558;2024-03-02T03:25:30;5.25;;;4.35;;
30287;SDS011;17103;48.316;11.558;2024-03-02T03:27:55;6.97;;;4.72;;
30287;SDS011;17103;48.316;11.558;2024-03-02T03:30:21;6.63;;;4.78;;
30287;SDS011;17103;48.316;11.558;2024-03-02T03:32:48;5.53;;;3.92;;
30287;SDS011;17103;48.316;11.558;2024-03-02T03:35:14;7.13;;;4.75;;
30287;SDS011;17103;48.316;11.558;2024-03-02T03:37:43;6.13;;;4.75;;
30287;SDS011;17103;48.316;11.558;2024-03-02T03:40:09;6.88;;;4.50;;
30287;SDS011;17103;48.316;11.558;2024-03-02T03:42:36;5.68;;;4.07;;
30287;SDS011;17103;48.316;11.558;2024-03-02T03:45:02;6.32;;;4.18;;
30287;SDS011;17103;48.316;11.558;2024-03-02T03:47:28;5.78;;;4.03;;
30287;SDS011;17103;48.316;11.558;2024-03-02T03:49:54;6.25;;;4.30;;
30287;SDS011;17103;48.316;11.558;2024-03-02T03:52:20;5.28;;;4.32;;
30287;SDS011;17103;48.316;11.558;2024-03-02T03:54:46;4.78;;;3.85;;
30287;SDS011;17103;48.316;11.558;2024-03-02T03:57:13;4.95;;;4.00;;
30287;SDS011;17103;48.316;11.558;2024-03-02T03:59:39;5.88;;;4.40;;
30287;SDS011;17103;48.316;11.558;2024-03-02T04:02:10;5.80;;;4.35;;
30287;SDS011;17103;48.316;11.558;2024-03-02T04:04:38;5.35;;;4.40;;
30287;SDS011;17103;48.316;11.558;2024-03-02T04:07:05;6.57;;;4.60;;
30287;SDS011;17103;48.316;11.558;2024-03-02T04:09:31;4.95;;;3.95;;
30287;SDS011;17103;48.316;11.558;2024-03-02T04:12:00;6.57;;;4.60;;
30287;SDS011;17103;48.316;11.558;2024-03-02T04:14:27;6.20;;;4.93;;
30287;SDS011;17103;48.316;11.558;2024-03-02T04:16:57;5.78;;;4.03;;
30287;SDS011;17103;48.316;11.558;2024-03-02T04:19:23;5.88;;;4.40;;
30287;SDS011;17103;48.316;11.558;2024-03-02T04:21:49;7.22;;;4.88;;
30287;SDS011;17103;48.316;11.558;2024-03-02T04:24:17;6.95;;;4.53;;
30287;SDS011;17103;48.316;11.558;2024-03-02T04:26:42;6.25;;;4.10;;
30287;SDS011;17103;48.316;11.558;2024-03-02T04:29:10;4.90;;;3.85;;
30287;SDS011;17103;48.316;11.558;2024-03-02T04:31:41;5.47;;;4.40;;
30287;SDS011;17103;48.316;11.558;2024-03-02T04:34:09;5.30;;;4.22;;
30287;SDS011;17103;48.316;11.558;2024-03-02T04:36:39;4.53;;;3.90;;
30287;SDS011;17103;48.316;11.558;2024-03-02T04:39:11;5.65;;;4.38;;
30287;SDS011;17103;48.316;11.558;2024-03-02T04:41:37;6.07;;;4.20;;
30287;SDS011;17103;48.316;11.558;2024-03-02T04:44:05;5.45;;;4.05;;
30287;SDS011;17103;48.316;11.558;2024-03-02T04:46:34;5.95;;;3.78;;
30287;SDS011;17103;48.316;11.558;2024-03-02T04:49:04;5.10;;;3.55;;
30287;SDS011;17103;48.316;11.558;2024-03-02T04:51:30;5.22;;;4.07;;
30287;SDS011;17103;48.316;11.558;2024-03-02T04:54:00;5.53;;;4.22;;
30287;SDS011;17103;48.316;11.558;2024-03-02T04:56:30;6.05;;;4.20;;
30287;SDS011;17103;48.316;11.558;2024-03-02T04:59:09;6.47;;;3.60;;
30287;SDS011;17103;48.316;11.558;2024-03-02T05:01:36;7.28;;;4.13;;
30287;SDS011;17103;48.316;11.558;2024-03-02T05:04:19;4.63;;;3.78;;
30287;SDS011;17103;48.316;11.558;2024-03-02T05:06:46;5.45;;;4.22;;
30287;SDS011;17103;48.316;11.558;2024-03-02T05:09:20;4.47;;;3.80;;
30287;SDS011;17103;48.316;11.558;2024-03-02T05:12:00;5.00;;;3.95;;
30287;SDS011;17103;48.316;11.558;2024-03-02T05:14:46;5.63;;;4.82;;
30287;SDS011;17103;48.316;11.558;2024-03-02T05:17:39;8.48;;;5.53;;
30287;SDS011;17103;48.316;11.558;2024-03-02T05:20:08;6.53;;;3.75;;
30287;SDS011;17103;48.316;11.558;2024-03-02T05:22:35;6.93;;;4.38;;
30287;SDS011;17103;48.316;11.558;2024-03-02T05:25:02;5.18;;;4.63;;
30287;SDS011;17103;48.316;11.558;2024-03-02T05:27:28;5.70;;;4.32;;
30287;SDS011;17103;48.316;11.558;2024-03-02T05:29:55;5.65;;;4.93;;
30287;SDS011;17103;48.316;11.558;2024-03-02T05:32:27;5.30;;;4.78;;
30287;SDS011;17103;48.316;11.558;2024-03-02T05:35:05;5.90;;;4.57;;
30287;SDS011;17103;48.316;11.558;2024-03-02T05:37:31;7.22;;;6.38;;
30287;SDS011;17103;48.316;11.558;2024-03-02T05:39:57;8.13;;;6.15;;
30287;SDS011;17103;48.316;11.558;2024-03-02T05:42:27;7.95;;;6.07;;
30287;SDS011;17103;48.316;11.558;2024-03-02T05:44:53;8.18;;;6.13;;
30287;SDS011;17103;48.316;11.558;2024-03-02T05:47:19;7.57;;;6.28;;
30287;SDS011;17103;48.316;11.558;2024-03-02T05:49:45;10.48;;;6.55;;
30287;SDS011;17103;48.316;11.558;2024-03-02T05:52:10;8.57;;;6.30;;
30287;SDS011;17103;48.316;11.558;2024-03-02T05:54:36;7.93;;;6.13;;
30287;SDS011;17103;48.316;11.558;2024-03-02T05:57:02;8.50;;;6.47;;
30287;SDS011;17103;48.316;11.558;2024-03-02T05:59:42;8.35;;;6.75;;
30287;SDS011;17103;48.316;11.558;2024-03-02T06:02:08;7.70;;;6.28;;
30287;SDS011;17103;48.316;11.558;2024-03-02T06:04:34;7.13;;;6.32;;
30287;SDS011;17103;48.316;11.558;2024-03-02T06:06:59;7.43;;;6.35;;
30287;SDS011;17103;48.316;11.558;2024-03-02T06:09:25;7.75;;;5.90;;
30287;SDS011;17103;48.316;11.558;2024-03-02T06:11:51;9.48;;;6.95;;
30287;SDS011;17103;48.316;11.558;2024-03-02T06:14:17;8.27;;;6.47;;
30287;SDS011;17103;48.316;11.558;2024-03-02T06:16:42;8.48;;;6.80;;
30287;SDS011;17103;48.316;11.558;2024-03-02T06:19:08;8.25;;;6.85;;
30287;SDS011;17103;48.316;11.558;2024-03-02T06:21:33;8.35;;;6.57;;
30287;SDS011;17103;48.316;11.558;2024-03-02T06:23:59;8.55;;;6.75;;
30287;SDS011;17103;48.316;11.558;2024-03-02T06:26:26;8.38;;;5.88;;
30287;SDS011;17103;48.316;11.558;2024-03-02T06:28:51;8.15;;;6.45;;
30287;SDS011;17103;48.316;11.558;2024-03-02T06:31:17;7.93;;;6.80;;
30287;SDS011;17103;48.316;11.558;2024-03-02T06:33:43;8.82;;;6.70;;
30287;SDS011;17103;48.316;11.558;2024-03-02T06:36:08;9.48;;;7.18;;
30287;SDS011;17103;48.316;11.558;2024-03-02T06:38:34;9.88;;;7.22;;
30287;SDS011;17103;48.316;11.558;2024-03-02T06:41:01;9.57;;;7.90;;
30287;SDS011;17103;48.316;11.558;2024-03-02T06:43:28;8.23;;;6.28;;
30287;SDS011;17103;48.316;11.558;2024-03-02T06:45:54;9.27;;;6.70;;
30287;SDS011;17103;48.316;11.558;2024-03-02T06:48:20;8.73;;;6.97;;
30287;SDS011;17103;48.316;11.558;2024-03-02T06:50:49;10.18;;;7.40;;
30287;SDS011;17103;48.316;11.558;2024-03-02T06:53:15;9.30;;;7.18;;
30287;SDS011;17103;48.316;11.558;2024-03-02T06:55:43;9.35;;;8.00;;
30287;SDS011;17103;48.316;11.558;2024-03-02T06:58:11;10.40;;;8.02;;
30287;SDS011;17103;48.316;11.558;2024-03-02T07:00:42;10.32;;;7.50;;
30287;SDS011;17103;48.316;11.558;2024-03-02T07:03:09;9.93;;;7.30;;
30287;SDS011;17103;48.316;11.558;2024-03-02T07:05:37;9.68;;;7.35;;
30287;SDS011;17103;48.316;11.558;2024-03-02T07:08:03;10.00;;;7.15;;
30287;SDS011;17103;48.316;11.558;2024-03-02T07:10:30;18.80;;;8.45;;
30287;SDS011;17103;48.316;11.558;2024-03-02T07:12:56;9.57;;;7.78;;
30287;SDS011;17103;48.316;11.558;2024-03-02T07:15:21;8.50;;;6.43;;
30287;SDS011;17103;48.316;11.558;2024-03-02T07:18:06;9.45;;;7.70;;
30287;SDS011;17103;48.316;11.558;2024-03-02T07:20:47;9.40;;;7.25;;
30287;SDS011;17103;48.316;11.558;2024-03-02T07:25:45;12.05;;;7.22;;
30287;SDS011;17103;48.316;11.558;2024-03-02T07:28:11;8.10;;;7.05;;
30287;SDS011;17103;48.316;11.558;2024-03-02T07:30:36;10.60;;;7.18;;
30287;SDS011;17103;48.316;11.558;2024-03-02T07:33:04;10.43;;;7.50;;
30287;SDS011;17103;48.316;11.558;2024-03-02T07:35:30;11.98;;;8.07;;
30287;SDS011;17103;48.316;11.558;2024-03-02T07:37:57;10.73;;;7.65;;
30287;SDS011;17103;48.316;11.558;2024-03-02T07:40:24;10.52;;;7.72;;
30287;SDS011;17103;48.316;11.558;2024-03-02T07:42:50;14.85;;;8.48;;
30287;SDS011;17103;48.316;11.558;2024-03-02T07:45:25;9.77;;;7.70;;
30287;SDS011;17103;48.316;11.558;2024-03-02T07:47:53;10.48;;;8.13;;
30287;SDS011;17103;48.316;11.558;2024-03-02T07:50:41;10.13;;;8.32;;
30287;SDS011;17103;48.316;11.558;2024-03-02T07:53:09;13.10;;;8.90;;
30287;SDS011;17103;48.316;11.558;2024-03-02T07:55:35;13.65;;;9.55;;
30287;SDS011;17103;48.316;11.558;2024-03-02T07:58:06;14.43;;;9.77;;
30287;SDS011;17103;48.316;11.558;2024-03-02T08:03:04;12.85;;;9.70;;
30287;SDS011;17103;48.316;11.558;2024-03-02T08:05:29;14.93;;;10.25;;
30287;SDS011;17103;48.316;11.558;2024-03-02T08:07:59;13.35;;;9.82;;
30287;SDS011;17103;48.316;11.558;2024-03-02T08:10:25;12.70;;;9.75;;
30287;SDS011;17103;48.316;11.558;2024-03-02T08:12:51;13.68;;;9.45;;
30287;SDS011;17103;48.316;11.558;2024-03-02T08:15:23;15.48;;;9.90;;
30287;SDS011;17103;48.316;11.558;2024-03-02T08:17:58;12.15;;;9.25;;
30287;SDS011;17103;48.316;11.558;2024-03-02T08:20:26;15.63;;;10.45;;
30287;SDS011;17103;48.316;11.558;2024-03-02T08:22:59;14.95;;;10.52;;
30287;SDS011;17103;48.316;11.558;2024-03-02T08:25:26;13.95;;;10.35;;
30287;SDS011;17103;48.316;11.558;2024-03-02T08:27:53;14.18;;;10.27;;
30287;SDS011;17103;48.316;11.558;2024-03-02T08:30:21;14.75;;;9.95;;
30287;SDS011;17103;48.316;11.558;2024-03-02T08:32:48;16.55;;;11.10;;
30287;SDS011;17103;48.316;11.558;2024-03-02T08:35:14;15.23;;;10.40;;
30287;SDS011;17103;48.316;11.558;2024-03-02T08:37:45;15.70;;;10.27;;
30287;SDS011;17103;48.316;11.558;2024-03-02T08:40:12;17.52;;;11.60;;
30287;SDS011;17103;48.316;11.558;2024-03-02T08:45:49;16.20;;;10.57;;
30287;SDS011;17103;48.316;11.558;2024-03-02T08:48:16;15.95;;;10.95;;
30287;SDS011;17103;48.316;11.558;2024-03-02T08:50:48;18.60;;;11.32;;
30287;SDS011;17103;48.316;11.558;2024-03-02T08:55:47;15.27;;;10.60;;
30287;SDS011;17103;48.316;11.558;2024-03-02T08:58:14;14.88;;;11.57;;
30287;SDS011;17103;48.316;11.558;2024-03-02T09:00:47;17.50;;;11.80;;
30287;SDS011;17103;48.316;11.558;2024-03-02T09:03:13;15.90;;;10.88;;
30287;SDS011;17103;48.316;11.558;2024-03-02T09:05:39;18.85;;;12.15;;
30287;SDS011;17103;48.316;11.558;2024-03-02T09:08:07;16.77;;;11.38;;
30287;SDS011;17103;48.316;11.558;2024-03-02T09:10:35;17.98;;;12.23;;
30287;SDS011;17103;48.316;11.558;2024-03-02T09:13:02;15.60;;;10.15;;
30287;SDS011;17103;48.316;11.558;2024-03-02T09:15:33;19.48;;;13.02;;
30287;SDS011;17103;48.316;11.558;2024-03-02T09:18:03;20.13;;;13.20;;
30287;SDS011;17103;48.316;11.558;2024-03-02T09:20:29;17.10;;;12.07;;
30287;SDS011;17103;48.316;11.558;2024-03-02T09:23:01;20.48;;;13.52;;
30287;SDS011;17103;48.316;11.558;2024-03-02T09:25:28;22.17;;;13.50;;
30287;SDS011;17103;48.316;11.558;2024-03-02T09:28:02;24.02;;;14.32;;
30287;SDS011;17103;48.316;11.558;2024-03-02T09:30:28;21.42;;;12.48;;
30287;SDS011;17103;48.316;11.558;2024-03-02T09:32:57;22.38;;;13.05;;
30287;SDS011;17103;48.316;11.558;2024-03-02T09:35:22;18.10;;;12.90;;
30287;SDS011;17103;48.316;11.558;2024-03-02T09:37:55;19.27;;;12.13;;
30287;SDS011;17103;48.316;11.558;2024-03-02T09:40:21;21.52;;;12.70;;
30287;SDS011;17103;48.316;11.558;2024-03-02T09:42:53;19.65;;;12.88;;
30287;SDS011;17103;48.316;11.558;2024-03-02T09:45:24;18.50;;;12.23;;
30287;SDS011;17103;48.316;11.558;2024-03-02T09:47:50;19.45;;;12.40;;
30287;SDS011;17103;48.316;11.558;2024-03-02T09:50:16;17.27;;;10.90;;
30287;SDS011;17103;48.316;11.558;2024-03-02T09:52:48;12.63;;;8.30;;
30287;SDS011;17103;48.316;11.558;2024-03-02T09:55:15;11.55;;;7.70;;
30287;SDS011;17103;48.316;11.558;2024-03-02T09:57:52;13.48;;;8.68;;
30287;SDS011;17103;48.316;11.558;2024-03-02T10:00:25;13.63;;;8.88;;
30287;SDS011;17103;48.316;11.558;2024-03-02T10:02:54;15.23;;;9.63;;
30287;SDS011;17103;48.316;11.558;2024-03-02T10:05:26;13.02;;;8.52;;
30287;SDS011;17103;48.316;11.558;2024-03-02T10:08:05;13.10;;;9.13;;
30287;SDS011;17103;48.316;11.558;2024-03-02T10:10:35;15.63;;;10.48;;
30287;SDS011;17103;48.316;11.558;2024-03-02T10:13:05;14.45;;;9.75;;
30287;SDS011;17103;48.316;11.558;2024-03-02T10:15:33;13.40;;;8.20;;
30287;SDS011;17103;48.316;11.558;2024-03-02T10:21:08;14.65;;;8.38;;
30287;SDS011;17103;48.316;11.558;2024-03-02T10:23:41;13.00;;;8.15;;
30287;SDS011;17103;48.316;11.558;2024-03-02T10:26:26;14.70;;;9.15;;
30287;SDS011;17103;48.316;11.558;2024-03-02T10:28:55;11.13;;;7.18;;
30287;SDS011;17103;48.316;11.558;2024-03-02T10:33:54;13.05;;;8.48;;
30287;SDS011;17103;48.316;11.558;2024-03-02T10:36:20;14.90;;;9.05;;
30287;SDS011;17103;48.316;11.558;2024-03-02T10:38:50;12.50;;;8.73;;
30287;SDS011;17103;48.316;11.558;2024-03-02T10:41:20;13.48;;;9.15;;
30287;SDS011;17103;48.316;11.558;2024-03-02T10:43:55;15.75;;;9.98;;
30287;SDS011;17103;48.316;11.558;2024-03-02T10:46:28;15.38;;;9.13;;
30287;SDS011;17103;48.316;11.558;2024-03-02T10:49:01;14.13;;;9.98;;
30287;SDS011;17103;48.316;11.558;2024-03-02T10:51:54;15.43;;;9.90;;
30287;SDS011;17103;48.316;11.558;2024-03-02T10:54:21;13.75;;;8.45;;
30287;SDS011;17103;48.316;11.558;2024-03-02T10:57:16;16.45;;;9.90;;
30287;SDS011;17103;48.316;11.558;2024-03-02T11:03:13;11.25;;;8.02;;
30287;SDS011;17103;48.316;11.558;2024-03-02T11:05:42;20.90;;;10.90;;
30287;SDS011;17103;48.316;11.558;2024-03-02T11:08:17;12.65;;;9.60;;
30287;SDS011;17103;48.316;11.558;2024-03-02T11:10:54;13.52;;;9.55;;
30287;SDS011;17103;48.316;11.558;2024-03-02T11:13:33;14.20;;;11.10;;
30287;SDS011;17103;48.316;11.558;2024-03-02T11:16:03;15.07;;;10.70;;
30287;SDS011;17103;48.316;11.558;2024-03-02T11:18:35;16.92;;;10.98;;
30287;SDS011;17103;48.316;11.558;2024-03-02T11:21:08;13.73;;;10.38;;
30287;SDS011;17103;48.316;11.558;2024-03-02T11:23:35;16.58;;;12.10;;
30287;SDS011;17103;48.316;11.558;2024-03-02T11:28:53;19.52;;;12.82;;
30287;SDS011;17103;48.316;11.558;2024-03-02T11:31:21;15.35;;;11.18;;
30287;SDS011;17103;48.316;11.558;2024-03-02T11:33:46;14.75;;;9.55;;
30287;SDS011;17103;48.316;11.558;2024-03-02T11:36:17;16.23;;;12.10;;
30287;SDS011;17103;48.316;11.558;2024-03-02T11:38:43;13.95;;;10.25;;
30287;SDS011;17103;48.316;11.558;2024-03-02T11:41:11;14.18;;;10.07;;
30287;SDS011;17103;48.316;11.558;2024-03-02T11:43:38;14.80;;;9.80;;
30287;SDS011;17103;48.316;11.558;2024-03-02T11:46:06;17.10;;;10.63;;
30287;SDS011;17103;48.316;11.558;2024-03-02T11:48:35;14.65;;;10.82;;
30287;SDS011;17103;48.316;11.558;2024-03-02T11:51:20;14.40;;;10.45;;
30287;SDS011;17103;48.316;11.558;2024-03-02T11:53:56;14.43;;;9.43;;
30287;SDS011;17103;48.316;11.558;2024-03-02T11:56:25;13.77;;;9.23;;
30287;SDS011;17103;48.316;11.558;2024-03-02T11:58:53;14.25;;;9.68;;
30287;SDS011;17103;48.316;11.558;2024-03-02T12:01:24;14.57;;;10.30;;
30287;SDS011;17103;48.316;11.558;2024-03-02T12:03:53;16.13;;;10.73;;
30287;SDS011;17103;48.316;11.558;2024-03-02T12:06:24;14.57;;;10.38;;
30287;SDS011;17103;48.316;11.558;2024-03-02T12:08:52;13.57;;;10.13;;
30287;SDS011;17103;48.316;11.558;2024-03-02T12:11:19;14.57;;;10.63;;
30287;SDS011;17103;48.316;11.558;2024-03-02T12:13:53;15.02;;;11.07;;
30287;SDS011;17103;48.316;11.558;2024-03-02T12:16:24;12.25;;;8.90;;
30287;SDS011;17103;48.316;11.558;2024-03-02T12:21:22;14.20;;;9.73;;
30287;SDS011;17103;48.316;11.558;2024-03-02T12:23:50;10.57;;;7.82;;
30287;SDS011;17103;48.316;11.558;2024-03-02T12:26:15;11.68;;;8.43;;
30287;SDS011;17103;48.316;11.558;2024-03-02T12:28:45;9.90;;;7.22;;
30287;SDS011;17103;48.316;11.558;2024-03-02T12:31:15;11.48;;;9.23;;
30287;SDS011;17103;48.316;11.558;2024-03-02T12:33:42;11.18;;;9.13;;
30287;SDS011;17103;48.316;11.558;2024-03-02T12:36:13;11.23;;;8.45;;
30287;SDS011;17103;48.316;11.558;2024-03-02T12:38:43;14.13;;;8.38;;
30287;SDS011;17103;48.316;11.558;2024-03-02T12:41:09;12.15;;;8.50;;
30287;SDS011;17103;48.316;11.558;2024-03-02T12:43:35;12.70;;;7.85;;
30287;SDS011;17103;48.316;11.558;2024-03-02T12:46:03;12.60;;;8.75;;
30287;SDS011;17103;48.316;11.558;2024-03-02T12:48:29;10.88;;;7.85;;
30287;SDS011;17103;48.316;11.558;2024-03-02T12:50:56;10.68;;;7.47;;
30287;SDS011;17103;48.316;11.558;2024-03-02T12:53:21;10.55;;;7.40;;
30287;SDS011;17103;48.316;11.558;2024-03-02T12:55:47;10.88;;;7.82;;
30287;SDS011;17103;48.316;11.558;2024-03-02T12:58:18;12.05;;;8.30;;
30287;SDS011;17103;48.316;11.558;2024-03-02T13:00:45;11.75;;;8.50;;
30287;SDS011;17103;48.316;11.558;2024-03-02T13:03:12;12.82;;;9.45;;
30287;SDS011;17103;48.316;11.558;2024-03-02T13:05:39;12.20;;;8.70;;
30287;SDS011;17103;48.316;11.558;2024-03-02T13:08:14;11.00;;;7.85;;
30287;SDS011;17103;48.316;11.558;2024-03-02T13:10:39;13.55;;;8.80;;
30287;SDS011;17103;48.316;11.558;2024-03-02T13:13:13;10.48;;;7.75;;
30287;SDS011;17103;48.316;11.558;2024-03-02T13:22:00;11.20;;;8.32;;
30287;SDS011;17103;48.316;11.558;2024-03-02T13:24:28;11.57;;;8.40;;
30287;SDS011;17103;48.316;11.558;2024-03-02T13:27:07;11.07;;;7.40;;
30287;SDS011;17103;48.316;11.558;2024-03-02T13:29:40;12.23;;;8.68;;
30287;SDS011;17103;48.316;11.558;2024-03-02T13:32:08;14.27;;;8.38;;
30287;SDS011;17103;48.316;11.558;2024-03-02T13:34:37;12.23;;;8.63;;
30287;SDS011;17103;48.316;11.558;2024-03-02T13:37:07;12.45;;;9.75;;
30287;SDS011;17103;48.316;11.558;2024-03-02T13:42:44;11.73;;;8.98;;
30287;SDS011;17103;48.316;11.558;2024-03-02T13:45:16;13.90;;;8.82;;
30287;SDS011;17103;48.316;11.558;2024-03-02T13:47:52;13.02;;;9.55;;
30287;SDS011;17103;48.316;11.558;2024-03-02T13:50:30;12.73;;;8.20;;
30287;SDS011;17103;48.316;11.558;2024-03-02T13:52:57;11.50;;;9.18;;
30287;SDS011;17103;48.316;11.558;2024-03-02T13:55:25;12.57;;;9.20;;
30287;SDS011;17103;48.316;11.558;2024-03-02T13:57:50;13.38;;;9.32;;
30287;SDS011;17103;48.316;11.558;2024-03-02T14:00:19;13.85;;;9.38;;
30287;SDS011;17103;48.316;11.558;2024-03-02T14:02:45;13.57;;;9.38;;
30287;SDS011;17103;48.316;11.558;2024-03-02T14:05:11;14.10;;;10.00;;
30287;SDS011;17103;48.316;11.558;2024-03-02T14:07:38;11.30;;;8.77;;
30287;SDS011;17103;48.316;11.558;2024-03-02T14:10:05;13.07;;;9.18;;
30287;SDS011;17103;48.316;11.558;2024-03-02T14:12:31;13.30;;;9.95;;
30287;SDS011;17103;48.316;11.558;2024-03-02T14:14:56;12.50;;;9.23;;
30287;SDS011;17103;48.316;11.558;2024-03-02T14:17:28;14.35;;;9.93;;
30287;SDS011;17103;48.316;11.558;2024-03-02T14:19:57;11.95;;;9.73;;
30287;SDS011;17103;48.316;11.558;2024-03-02T14:22:26;12.27;;;9.68;;
30287;SDS011;17103;48.316;11.558;2024-03-02T14:24:52;13.77;;;9.32;;
30287;SDS011;17103;48.316;11.558;2024-03-02T14:30:28;14.57;;;9.82;;
30287;SDS011;17103;48.316;11.558;2024-03-02T14:33:26;15.80;;;11.40;;
30287;SDS011;17103;48.316;11.558;2024-03-02T14:36:13;16.95;;;11.10;;
30287;SDS011;17103;48.316;11.558;2024-03-02T14:41:18;15.63;;;10.98;;
30287;SDS011;17103;48.316;11.558;2024-03-02T14:43:50;14.00;;;11.32;;
30287;SDS011;17103;48.316;11.558;2024-03-02T14:46:21;16.65;;;12.02;;
30287;SDS011;17103;48.316;11.558;2024-03-02T14:48:51;14.23;;;11.70;;
30287;SDS011;17103;48.316;11.558;2024-03-02T14:51:17;16.20;;;11.20;;
30287;SDS011;17103;48.316;11.558;2024-03-02T14:59:02;15.90;;;10.25;;
30287;SDS011;17103;48.316;11.558;2024-03-02T15:01:36;17.55;;;11.48;;
30287;SDS011;17103;48.316;11.558;2024-03-02T15:04:17;16.55;;;10.75;;
30287;SDS011;17103;48.316;11.558;2024-03-02T15:07:06;14.05;;;10.30;;
30287;SDS011;17103;48.316;11.558;2024-03-02T15:09:44;14.70;;;10.60;;
30287;SDS011;17103;48.316;11.558;2024-03-02T15:12:13;15.68;;;9.88;;
30287;SDS011;17103;48.316;11.558;2024-03-02T15:15:00;13.75;;;9.57;;
30287;SDS011;17103;48.316;11.558;2024-03-02T15:20:36;12.98;;;9.30;;
30287;SDS011;17103;48.316;11.558;2024-03-02T15:23:03;12.73;;;9.43;;
30287;SDS011;17103;48.316;11.558;2024-03-02T15:25:53;13.25;;;9.55;;
30287;SDS011;17103;48.316;11.558;2024-03-02T15:29:11;12.93;;;9.65;;
30287;SDS011;17103;48.316;11.558;2024-03-02T15:31:46;14.63;;;10.18;;
30287;SDS011;17103;48.316;11.558;2024-03-02T15:34:19;13.27;;;10.23;;
30287;SDS011;17103;48.316;11.558;2024-03-02T15:36:51;14.00;;;10.10;;
30287;SDS011;17103;48.316;11.558;2024-03-02T15:39:20;12.07;;;9.10;;
30287;SDS011;17103;48.316;11.558;2024-03-02T15:41:46;13.10;;;9.90;;
30287;SDS011;17103;48.316;11.558;2024-03-02T15:44:13;15.13;;;10.90;;
30287;SDS011;17103;48.316;11.558;2024-03-02T15:46:39;14.27;;;10.00;;
30287;SDS011;17103;48.316;11.558;2024-03-02T15:49:05;14.68;;;10.32;;